createdAt,value
2019-03-09T00:00:17.124Z,57.20
2019-03-09T00:02:58.339Z,56.40
2019-03-09T00:05:39.728Z,56.80
2019-03-09T00:08:20.862Z,56.20
2019-03-09T00:11:02.414Z,56.70
2019-03-09T00:13:43.688Z,55.30
2019-03-09T00:16:24.736Z,54.80
2019-03-09T00:19:06.382Z,54.20
2019-03-09T00:21:46.119Z,54.30
2019-03-09T00:27:54.408Z,54.40
2019-03-09T00:31:01.902Z,55.10
2019-03-09T00:33:50.803Z,54.60
2019-03-09T00:36:39.903Z,54.60
2019-03-09T00:39:28.472Z,54.90
2019-03-09T00:42:17.097Z,55.70
2019-03-09T00:45:05.917Z,56.40
2019-03-09T00:47:54.535Z,58.10
2019-03-09T00:56:51.103Z,58.30
2019-03-09T00:59:40.150Z,59.10
2019-03-09T01:05:38.183Z,57.80
2019-03-09T01:08:38.458Z,57.30
2019-03-09T01:11:30.901Z,56.40
2019-03-09T01:14:07.419Z,55.40
2019-03-09T01:16:56.083Z,55.30
2019-03-09T01:19:45.132Z,55.50
2019-03-09T01:22:26.579Z,55.70
2019-03-09T01:25:08.266Z,54.10
2019-03-09T01:27:49.635Z,52.70
2019-03-09T01:30:30.915Z,52.90
2019-03-09T01:33:12.240Z,53.00
2019-03-09T01:35:53.515Z,53.10
2019-03-09T01:38:34.676Z,53.00
2019-03-09T01:41:16.190Z,51.90
2019-03-09T01:43:57.605Z,53.40
2019-03-09T01:46:39.088Z,53.50
2019-03-09T01:49:20.672Z,55.30
2019-03-09T01:52:01.632Z,57.00
2019-03-09T01:54:43.261Z,55.40
2019-03-09T01:57:24.830Z,57.20
2019-03-09T02:00:06.362Z,58.10
2019-03-09T02:02:47.735Z,59.10
2019-03-09T02:05:28.948Z,59.80
2019-03-09T02:08:09.792Z,59.10
2019-03-09T02:10:49.496Z,59.00
2019-03-09T02:13:50.366Z,59.90
2019-03-09T02:16:29.314Z,60.20
2019-03-09T02:19:18.159Z,61.50
2019-03-09T02:21:57.796Z,62.50
2019-03-09T02:24:46.575Z,64.90
2019-03-09T02:27:35.508Z,66.20
2019-03-09T02:33:33.361Z,68.20
2019-03-09T02:36:22.378Z,70.50
2019-03-09T02:39:29.893Z,72.30
2019-03-09T02:42:18.669Z,73.60
2019-03-09T02:48:22.458Z,75.20
2019-03-09T02:54:20.772Z,77.50
2019-03-09T03:00:18.807Z,76.80
2019-03-09T03:03:07.610Z,77.50
2019-03-09T03:05:56.547Z,78.10
2019-03-09T03:11:54.605Z,77.40
2019-03-09T03:14:43.249Z,76.80
2019-03-09T03:17:32.342Z,78.40
2019-03-09T03:20:21.045Z,80.00
2019-03-09T03:23:02.395Z,80.40
2019-03-09T03:25:43.897Z,82.10
2019-03-09T03:28:24.748Z,82.20
2019-03-09T03:31:06.149Z,82.10
2019-03-09T03:33:45.906Z,83.00
2019-03-09T03:39:44.018Z,83.70
2019-03-09T03:42:44.272Z,84.10
2019-03-09T03:45:23.053Z,84.00
2019-03-09T03:48:11.977Z,85.50
2019-03-09T03:51:00.587Z,86.60
2019-03-09T03:54:03.089Z,88.00
2019-03-09T03:59:35.368Z,90.00
2019-03-09T04:02:23.978Z,90.40
2019-03-09T04:08:33.461Z,91.30
2019-03-09T04:11:24.064Z,91.30
2019-03-09T04:16:58.172Z,92.90
2019-03-09T04:19:47.106Z,93.10
2019-03-09T04:22:27.920Z,93.90
2019-03-09T04:25:09.509Z,93.90
2019-03-09T04:27:49.177Z,94.70
2019-03-09T04:30:49.363Z,95.00
2019-03-09T04:33:27.990Z,95.30
2019-03-09T04:36:16.855Z,95.40
2019-03-09T04:42:19.880Z,95.20
2019-03-09T04:48:17.647Z,95.50
2019-03-09T04:54:03.419Z,96.20
2019-03-09T04:56:52.034Z,96.40
2019-03-09T04:59:52.536Z,96.60
2019-03-09T05:08:25.594Z,97.10
2019-03-09T05:11:15.992Z,97.90
2019-03-09T05:17:48.275Z,98.80
2019-03-09T05:20:24.523Z,99.40
2019-03-09T05:23:05.983Z,99.90
2019-03-09T05:25:47.615Z,99.90
2019-03-09T05:28:29.234Z,99.90
2019-03-09T05:31:09.026Z,99.90
2019-03-09T05:42:57.571Z,99.90
2019-03-09T05:52:09.796Z,99.90
2019-03-09T05:54:59.090Z,99.90
2019-03-09T05:57:48.004Z,99.90
2019-03-09T06:03:46.435Z,99.90
2019-03-09T06:06:35.333Z,99.90
2019-03-09T06:09:37.911Z,99.90
2019-03-09T06:12:14.255Z,99.90
2019-03-09T06:15:14.445Z,99.90
2019-03-09T06:18:07.018Z,99.90
2019-03-09T06:20:58.026Z,99.90
2019-03-09T06:23:34.771Z,99.90
2019-03-09T06:26:23.458Z,99.90
2019-03-09T06:29:12.297Z,99.90
2019-03-09T06:32:20.212Z,99.90
2019-03-09T06:38:37.476Z,99.90
2019-03-09T06:44:38.261Z,99.90
2019-03-09T06:47:27.119Z,99.90
2019-03-09T06:59:25.443Z,98.90
2019-03-09T07:02:25.870Z,98.70
2019-03-09T07:05:04.931Z,97.60
2019-03-09T07:10:49.546Z,96.80
2019-03-09T07:16:47.470Z,96.90
2019-03-09T07:19:24.481Z,96.50
2019-03-09T07:22:06.207Z,96.70
2019-03-09T07:24:47.727Z,97.00
2019-03-09T07:27:29.565Z,96.60
2019-03-09T07:30:10.789Z,95.60
2019-03-09T07:32:51.871Z,94.50
2019-03-09T07:35:32.946Z,94.30
2019-03-09T07:38:13.656Z,94.10
2019-03-09T07:40:55.121Z,92.60
2019-03-09T07:43:36.812Z,92.70
2019-03-09T07:46:18.637Z,90.60
2019-03-09T07:48:59.868Z,90.20
2019-03-09T07:51:41.790Z,89.20
2019-03-09T07:54:22.941Z,90.00
2019-03-09T07:57:04.645Z,88.80
2019-03-09T07:59:46.372Z,90.20
2019-03-09T08:02:27.775Z,87.30
2019-03-09T08:05:09.064Z,86.30
2019-03-09T08:07:50.565Z,85.40
2019-03-09T08:10:31.628Z,84.30
2019-03-09T08:13:13.193Z,82.00
2019-03-09T08:15:54.677Z,82.50
2019-03-09T08:18:36.220Z,82.20
2019-03-09T08:21:17.339Z,81.60
2019-03-09T08:23:58.685Z,78.90
2019-03-09T08:26:40.176Z,77.30
2019-03-09T08:29:21.339Z,77.10
2019-03-09T08:32:02.846Z,75.60
2019-03-09T08:34:44.447Z,74.10
2019-03-09T08:37:25.343Z,71.90
2019-03-09T08:40:06.873Z,68.20
2019-03-09T08:42:48.223Z,66.70
2019-03-09T08:45:29.042Z,67.00
2019-03-09T08:48:10.237Z,66.90
2019-03-09T08:50:51.995Z,67.30
2019-03-09T08:53:33.294Z,69.10
2019-03-09T08:56:14.645Z,68.30
2019-03-09T08:58:56.047Z,66.20
2019-03-09T09:01:37.567Z,65.50
2019-03-09T09:04:18.981Z,63.30
2019-03-09T09:07:00.681Z,63.00
2019-03-09T09:09:41.952Z,64.40
2019-03-09T09:12:23.152Z,64.30
2019-03-09T09:15:04.495Z,64.60
2019-03-09T09:17:45.970Z,64.00
2019-03-09T09:20:27.359Z,64.30
2019-03-09T09:23:09.230Z,64.20
2019-03-09T09:25:50.577Z,62.80
2019-03-09T09:28:32.184Z,62.60
2019-03-09T09:31:13.673Z,63.20
2019-03-09T09:33:55.328Z,61.30
2019-03-09T09:36:36.681Z,60.00
2019-03-09T09:39:18.249Z,60.70
2019-03-09T09:41:59.941Z,59.70
2019-03-09T09:44:41.428Z,56.80
2019-03-09T09:47:22.839Z,56.10
2019-03-09T09:50:03.988Z,56.10
2019-03-09T09:52:45.491Z,54.00
2019-03-09T09:55:27.073Z,50.90
2019-03-09T09:58:08.575Z,51.70
2019-03-09T10:00:48.230Z,51.80
2019-03-09T10:03:36.863Z,53.00
2019-03-09T10:09:35.177Z,52.40
2019-03-09T10:12:35.618Z,52.90
2019-03-09T10:18:41.298Z,55.00
2019-03-09T10:21:12.955Z,55.10
2019-03-09T10:23:53.835Z,53.60
2019-03-09T10:26:33.559Z,54.70
2019-03-09T10:38:22.414Z,54.50
2019-03-09T10:41:11.002Z,53.90
2019-03-09T10:43:59.706Z,54.50
2019-03-09T10:58:48.271Z,54.50
2019-03-09T11:04:32.588Z,54.00
2019-03-09T11:07:21.542Z,53.40
2019-03-09T11:10:10.324Z,53.30
2019-03-09T11:12:59.059Z,51.70
2019-03-09T11:15:59.457Z,47.80
2019-03-09T11:18:38.316Z,49.00
2019-03-09T11:21:19.658Z,47.70
2019-03-09T11:24:01.184Z,46.40
2019-03-09T11:26:41.930Z,45.30
2019-03-09T11:29:23.528Z,43.90
2019-03-09T11:32:05.116Z,42.80
2019-03-09T11:34:46.532Z,42.70
2019-03-09T11:37:28.104Z,39.50
2019-03-09T11:40:09.990Z,40.30
2019-03-09T11:42:50.981Z,39.40
2019-03-09T11:45:32.202Z,37.40
2019-03-09T11:48:13.907Z,34.80
2019-03-09T11:50:55.901Z,34.20
2019-03-09T11:53:36.805Z,30.10
2019-03-09T11:56:18.136Z,29.10
2019-03-09T11:59:00.043Z,27.40
2019-03-09T12:01:41.433Z,25.80
2019-03-09T12:04:22.796Z,25.90
2019-03-09T12:07:03.743Z,24.20
2019-03-09T12:09:44.831Z,22.90
2019-03-09T12:12:26.489Z,20.20
2019-03-09T12:15:07.828Z,17.20
2019-03-09T12:17:50.553Z,17.60
2019-03-09T12:20:31.643Z,18.10
2019-03-09T12:23:12.861Z,16.40
2019-03-09T12:25:54.456Z,15.50
2019-03-09T12:28:36.048Z,15.60
2019-03-09T12:31:17.303Z,15.80
2019-03-09T12:33:58.799Z,15.20
2019-03-09T12:36:40.193Z,15.80
2019-03-09T12:39:21.782Z,16.80
2019-03-09T12:42:01.493Z,17.20
2019-03-09T12:44:50.361Z,17.40
2019-03-09T12:47:39.405Z,17.40
2019-03-09T12:50:28.113Z,18.30
2019-03-09T12:53:16.870Z,18.80
2019-03-09T12:56:17.258Z,18.20
2019-03-09T13:02:03.800Z,18.40
2019-03-09T13:05:06.997Z,18.80
2019-03-09T13:10:50.304Z,20.10
2019-03-09T13:19:20.093Z,19.80
2019-03-09T13:22:00.906Z,20.30
2019-03-09T13:24:41.982Z,21.20
2019-03-09T13:27:23.449Z,21.80
2019-03-09T13:30:03.151Z,22.20
2019-03-09T13:33:04.235Z,22.00
2019-03-09T13:35:42.639Z,22.00
2019-03-09T13:38:31.242Z,21.90
2019-03-09T13:44:29.628Z,22.20
2019-03-09T13:47:06.365Z,22.00
2019-03-09T13:50:06.785Z,22.40
2019-03-09T13:52:45.722Z,24.20
2019-03-09T13:55:48.165Z,24.20
2019-03-09T13:58:36.543Z,23.20
2019-03-09T14:04:24.616Z,22.80
2019-03-09T14:07:24.860Z,22.40
2019-03-09T14:13:02.636Z,23.60
2019-03-09T14:15:51.522Z,25.10
2019-03-09T14:18:40.176Z,25.00
2019-03-09T14:21:21.367Z,27.80
2019-03-09T14:24:03.279Z,29.70
2019-03-09T14:26:44.267Z,35.00
2019-03-09T14:29:25.612Z,39.30
2019-03-09T14:32:06.688Z,50.00
2019-03-09T14:34:48.000Z,46.60
2019-03-09T14:37:29.716Z,52.70
2019-03-09T14:40:11.698Z,53.20
2019-03-09T14:42:52.750Z,51.50
2019-03-09T14:45:33.625Z,58.90
2019-03-09T14:48:14.926Z,58.90
2019-03-09T14:50:56.496Z,66.30
2019-03-09T14:53:37.821Z,88.40
2019-03-09T14:56:19.382Z,90.40
2019-03-09T14:59:00.674Z,91.10
2019-03-09T15:01:42.250Z,91.70
2019-03-09T15:04:23.646Z,91.10
2019-03-09T15:07:04.435Z,92.80
2019-03-09T15:09:45.544Z,93.40
2019-03-09T15:12:27.108Z,94.40
2019-03-09T15:15:08.625Z,91.30
2019-03-09T15:17:50.137Z,84.50
2019-03-09T15:20:31.433Z,84.50
2019-03-09T15:23:12.135Z,81.30
2019-03-09T15:25:53.744Z,80.70
2019-03-09T15:28:35.230Z,79.80
2019-03-09T15:31:14.943Z,80.30
2019-03-09T15:34:03.519Z,79.90
2019-03-09T15:36:52.228Z,82.90
2019-03-09T15:42:49.992Z,79.30
2019-03-09T15:45:38.567Z,80.90
2019-03-09T15:48:27.180Z,81.30
2019-03-09T15:51:16.387Z,81.80
2019-03-09T15:54:05.381Z,83.60
2019-03-09T15:56:54.669Z,83.70
2019-03-09T15:59:43.715Z,85.10
2019-03-09T16:02:32.387Z,85.20
2019-03-09T16:05:35.132Z,84.20
2019-03-09T16:11:20.674Z,82.00
2019-03-09T16:14:09.245Z,87.00
2019-03-09T16:16:50.943Z,92.80
2019-03-09T16:19:32.120Z,97.00
2019-03-09T16:22:13.331Z,99.60
2019-03-09T16:24:54.791Z,99.90
2019-03-09T16:27:36.444Z,99.90
2019-03-09T16:30:18.068Z,99.90
2019-03-09T16:32:59.504Z,99.90
2019-03-09T16:35:41.070Z,99.90
2019-03-09T16:38:22.286Z,99.90
2019-03-09T16:41:03.830Z,99.90
2019-03-09T16:43:45.402Z,99.90
2019-03-09T16:46:26.744Z,99.90
2019-03-09T16:49:07.942Z,99.90
2019-03-09T16:51:49.039Z,99.90
2019-03-09T16:54:29.829Z,99.90
2019-03-09T16:57:11.338Z,99.90
2019-03-09T16:59:52.979Z,99.90
2019-03-09T17:02:34.273Z,99.90
2019-03-09T17:05:15.562Z,99.90
2019-03-09T17:07:57.206Z,99.90
2019-03-09T17:10:38.299Z,99.90
2019-03-09T17:13:19.768Z,99.90
2019-03-09T17:16:01.275Z,99.90
2019-03-09T17:18:43.021Z,99.90
2019-03-09T17:21:24.424Z,99.90
2019-03-09T17:24:05.654Z,99.90
2019-03-09T17:26:47.003Z,99.90
2019-03-09T17:29:28.457Z,99.90
2019-03-09T17:32:09.220Z,99.90
2019-03-09T17:34:49.933Z,99.90
2019-03-09T17:37:31.786Z,99.90
2019-03-09T17:40:11.721Z,99.90
2019-03-09T17:43:00.430Z,99.90
2019-03-09T17:45:49.007Z,99.90
2019-03-09T17:48:37.630Z,99.90
2019-03-09T17:54:49.489Z,99.90
2019-03-09T18:03:31.475Z,99.90
2019-03-09T18:06:20.133Z,99.90
2019-03-09T18:09:08.735Z,99.90
2019-03-09T18:11:57.324Z,99.90
2019-03-09T18:14:38.271Z,99.80
2019-03-09T18:17:19.068Z,98.80
2019-03-09T18:20:00.413Z,99.70
2019-03-09T18:22:41.816Z,99.50
2019-03-09T18:25:23.378Z,97.50
2019-03-09T18:28:04.936Z,98.00
2019-03-09T18:30:46.242Z,97.60
2019-03-09T18:33:27.796Z,97.40
2019-03-09T18:36:08.600Z,95.90
2019-03-09T18:38:50.026Z,95.90
2019-03-09T18:41:30.901Z,96.50
2019-03-09T18:44:12.341Z,95.40
2019-03-09T18:46:53.872Z,95.80
2019-03-09T18:49:33.635Z,94.30
2019-03-09T18:55:29.694Z,88.50
2019-03-09T18:58:08.560Z,89.50
2019-03-09T19:00:57.509Z,86.80
2019-03-09T19:06:42.244Z,79.80
2019-03-09T19:12:18.716Z,74.40
2019-03-09T19:14:59.568Z,72.50
2019-03-09T19:17:41.006Z,70.30
2019-03-09T19:20:21.732Z,73.00
2019-03-09T19:23:03.173Z,73.50
2019-03-09T19:25:43.992Z,69.40
2019-03-09T19:28:25.555Z,66.70
2019-03-09T19:31:07.037Z,65.80
2019-03-09T19:33:48.799Z,65.80
2019-03-09T19:36:29.972Z,66.70
2019-03-09T19:39:11.738Z,67.80
2019-03-09T19:41:52.752Z,67.00
2019-03-09T19:44:33.472Z,69.10
2019-03-09T19:47:14.975Z,69.00
2019-03-09T19:49:56.420Z,69.30
2019-03-09T19:52:38.151Z,69.10
2019-03-09T19:55:19.651Z,68.40
2019-03-09T19:58:00.748Z,68.60
2019-03-09T20:00:42.339Z,68.30
2019-03-09T20:03:24.024Z,67.20
2019-03-09T20:06:05.523Z,66.60
2019-03-09T20:08:46.350Z,65.70
2019-03-09T20:11:27.930Z,64.90
2019-03-09T20:14:07.638Z,66.40
2019-03-09T20:17:08.070Z,66.50
2019-03-09T20:19:46.933Z,67.70
2019-03-09T20:22:49.467Z,69.00
2019-03-09T20:28:19.531Z,71.50
2019-03-09T20:31:08.168Z,72.30
2019-03-09T20:33:57.134Z,71.10
2019-03-09T20:36:46.063Z,70.20
2019-03-09T20:42:44.033Z,70.50
2019-03-09T20:45:46.786Z,70.90
2019-03-09T20:48:23.557Z,70.90
2019-03-09T20:51:12.174Z,70.00
2019-03-09T20:54:00.865Z,69.80
2019-03-09T20:59:49.638Z,70.10
2019-03-09T21:02:30.860Z,70.30
2019-03-09T21:05:12.384Z,70.40
2019-03-09T21:07:53.684Z,70.70
2019-03-09T21:10:34.703Z,71.80
2019-03-09T21:13:15.425Z,72.60
2019-03-09T21:15:57.115Z,72.50
2019-03-09T21:18:38.396Z,72.20
2019-03-09T21:21:19.865Z,71.70
2019-03-09T21:24:01.264Z,71.40
2019-03-09T21:26:42.320Z,71.10
2019-03-09T21:29:23.758Z,70.30
2019-03-09T21:32:05.499Z,70.60
2019-03-09T21:34:46.535Z,69.70
2019-03-09T21:37:27.043Z,69.30
2019-03-09T21:40:16.072Z,69.40
2019-03-09T21:43:05.022Z,68.70
2019-03-09T21:49:02.856Z,69.40
2019-03-09T21:51:51.833Z,68.70
2019-03-09T21:54:52.219Z,69.40
2019-03-09T21:57:23.650Z,69.80
2019-03-09T22:00:05.107Z,70.50
2019-03-09T22:02:46.552Z,70.60
2019-03-09T22:05:27.710Z,71.20
2019-03-09T22:08:08.468Z,70.80
2019-03-09T22:10:49.845Z,71.10
2019-03-09T22:13:31.151Z,71.70
2019-03-09T22:16:12.400Z,69.60
2019-03-09T22:18:53.074Z,70.30
2019-03-09T22:21:33.858Z,69.80
2019-03-09T22:24:14.682Z,69.90
2019-03-09T22:26:55.975Z,69.20
2019-03-09T22:29:36.964Z,69.10
2019-03-09T22:32:19.588Z,68.10
2019-03-09T22:35:00.501Z,67.80
2019-03-09T22:37:42.120Z,67.60
2019-03-09T22:40:23.491Z,68.30
2019-03-09T22:43:04.533Z,69.20
2019-03-09T22:45:45.880Z,69.90
2019-03-09T22:48:27.514Z,70.20
2019-03-09T22:51:09.291Z,70.50
2019-03-09T22:53:50.959Z,69.80
2019-03-09T22:56:32.585Z,69.90
2019-03-09T22:59:14.060Z,69.70
2019-03-09T23:01:55.480Z,68.80
2019-03-09T23:04:37.416Z,68.70
2019-03-09T23:07:18.331Z,70.30
2019-03-09T23:10:00.022Z,69.90
2019-03-09T23:12:41.811Z,70.10
2019-03-09T23:15:23.045Z,70.20
2019-03-09T23:18:04.415Z,69.70
2019-03-09T23:20:45.786Z,68.80
2019-03-09T23:23:26.575Z,68.50
2019-03-09T23:26:07.395Z,66.30
2019-03-09T23:28:48.715Z,66.50
2019-03-09T23:31:29.490Z,66.80
2019-03-09T23:34:10.771Z,66.50
2019-03-09T23:36:52.488Z,67.40
2019-03-09T23:39:33.497Z,66.40
2019-03-09T23:42:15.944Z,66.40
2019-03-09T23:44:57.142Z,66.60
2019-03-09T23:47:38.647Z,66.30
2019-03-09T23:50:20.127Z,66.30
2019-03-09T23:53:01.533Z,65.70
2019-03-09T23:55:42.757Z,65.50
2019-03-09T23:58:23.531Z,64.90
